sensor_id;sensor_type;location;lat;lon;timestamp;P1;durP1;ratioP1;P2;durP2;ratioP2
10013;SDS011;45684;48.358;10.746;2023-03-01T00:01:09;15.80;;;12.40;;
10013;SDS011;45684;48.358;10.746;2023-03-01T00:03:39;14.90;;;12.10;;
10013;SDS011;45684;48.358;10.746;2023-03-01T00:06:06;16.13;;;12.23;;
10013;SDS011;45684;48.358;10.746;2023-03-01T00:08:34;15.97;;;12.27;;
10013;SDS011;45684;48.358;10.746;2023-03-01T00:11:03;16.77;;;12.73;;
10013;SDS011;45684;48.358;10.746;2023-03-01T00:13:39;16.03;;;13.00;;
10013;SDS011;45684;48.358;10.746;2023-03-01T00:16:08;15.03;;;12.50;;
10013;SDS011;45684;48.358;10.746;2023-03-01T00:18:38;14.47;;;11.63;;
10013;SDS011;45684;48.358;10.746;2023-03-01T00:21:06;15.87;;;12.87;;
10013;SDS011;45684;48.358;10.746;2023-03-01T00:23:34;15.23;;;12.30;;
10013;SDS011;45684;48.358;10.746;2023-03-01T00:26:05;15.87;;;11.90;;
10013;SDS011;45684;48.358;10.746;2023-03-01T00:28:35;16.33;;;13.27;;
10013;SDS011;45684;48.358;10.746;2023-03-01T00:31:05;17.00;;;12.63;;
10013;SDS011;45684;48.358;10.746;2023-03-01T00:33:34;15.47;;;12.83;;
10013;SDS011;45684;48.358;10.746;2023-03-01T00:36:03;15.77;;;12.83;;
10013;SDS011;45684;48.358;10.746;2023-03-01T00:38:34;15.97;;;12.80;;
10013;SDS011;45684;48.358;10.746;2023-03-01T00:41:03;15.97;;;12.17;;
10013;SDS011;45684;48.358;10.746;2023-03-01T00:43:31;15.60;;;12.63;;
10013;SDS011;45684;48.358;10.746;2023-03-01T00:46:03;15.53;;;12.13;;
10013;SDS011;45684;48.358;10.746;2023-03-01T00:48:33;15.93;;;12.70;;
10013;SDS011;45684;48.358;10.746;2023-03-01T00:51:05;16.23;;;12.60;;
10013;SDS011;45684;48.358;10.746;2023-03-01T00:53:33;15.47;;;12.80;;
10013;SDS011;45684;48.358;10.746;2023-03-01T00:56:02;16.10;;;12.40;;
10013;SDS011;45684;48.358;10.746;2023-03-01T00:58:31;17.17;;;12.67;;
10013;SDS011;45684;48.358;10.746;2023-03-01T01:00:59;16.77;;;12.83;;
10013;SDS011;45684;48.358;10.746;2023-03-01T01:03:29;16.50;;;12.63;;
10013;SDS011;45684;48.358;10.746;2023-03-01T01:05:56;14.90;;;12.30;;
10013;SDS011;45684;48.358;10.746;2023-03-01T01:08:24;15.43;;;12.70;;
10013;SDS011;45684;48.358;10.746;2023-03-01T01:10:52;16.43;;;12.70;;
10013;SDS011;45684;48.358;10.746;2023-03-01T01:13:19;16.23;;;12.87;;
10013;SDS011;45684;48.358;10.746;2023-03-01T01:15:47;15.67;;;12.67;;
10013;SDS011;45684;48.358;10.746;2023-03-01T01:18:15;17.73;;;13.23;;
10013;SDS011;45684;48.358;10.746;2023-03-01T01:20:44;16.00;;;12.80;;
10013;SDS011;45684;48.358;10.746;2023-03-01T01:23:12;18.23;;;13.50;;
10013;SDS011;45684;48.358;10.746;2023-03-01T01:25:40;16.40;;;13.27;;
10013;SDS011;45684;48.358;10.746;2023-03-01T01:28:08;17.07;;;13.17;;
10013;SDS011;45684;48.358;10.746;2023-03-01T01:30:35;17.13;;;13.00;;
10013;SDS011;45684;48.358;10.746;2023-03-01T01:33:03;17.60;;;13.40;;
10013;SDS011;45684;48.358;10.746;2023-03-01T01:35:31;15.70;;;12.87;;
10013;SDS011;45684;48.358;10.746;2023-03-01T01:38:00;17.13;;;13.70;;
10013;SDS011;45684;48.358;10.746;2023-03-01T01:40:28;17.73;;;14.23;;
10013;SDS011;45684;48.358;10.746;2023-03-01T01:42:56;16.73;;;12.90;;
10013;SDS011;45684;48.358;10.746;2023-03-01T01:45:28;16.37;;;13.03;;
10013;SDS011;45684;48.358;10.746;2023-03-01T01:48:00;15.63;;;12.47;;
10013;SDS011;45684;48.358;10.746;2023-03-01T01:50:31;15.53;;;12.23;;
10013;SDS011;45684;48.358;10.746;2023-03-01T01:53:06;16.57;;;12.80;;
10013;SDS011;45684;48.358;10.746;2023-03-01T01:55:39;17.00;;;13.00;;
10013;SDS011;45684;48.358;10.746;2023-03-01T01:58:14;19.00;;;12.90;;
10013;SDS011;45684;48.358;10.746;2023-03-01T02:00:45;16.07;;;13.00;;
10013;SDS011;45684;48.358;10.746;2023-03-01T02:03:14;17.07;;;13.43;;
10013;SDS011;45684;48.358;10.746;2023-03-01T02:05:45;19.83;;;14.17;;
10013;SDS011;45684;48.358;10.746;2023-03-01T02:08:22;17.83;;;13.60;;
10013;SDS011;45684;48.358;10.746;2023-03-01T02:10:52;16.83;;;13.20;;
10013;SDS011;45684;48.358;10.746;2023-03-01T02:13:22;20.33;;;13.87;;
10013;SDS011;45684;48.358;10.746;2023-03-01T02:15:49;16.57;;;13.47;;
10013;SDS011;45684;48.358;10.746;2023-03-01T02:18:20;17.17;;;13.03;;
10013;SDS011;45684;48.358;10.746;2023-03-01T02:20:54;18.17;;;13.33;;
10013;SDS011;45684;48.358;10.746;2023-03-01T02:23:31;18.57;;;13.73;;
10013;SDS011;45684;48.358;10.746;2023-03-01T02:26:02;16.67;;;13.50;;
10013;SDS011;45684;48.358;10.746;2023-03-01T02:28:36;18.53;;;13.53;;
10013;SDS011;45684;48.358;10.746;2023-03-01T02:31:06;18.73;;;14.00;;
10013;SDS011;45684;48.358;10.746;2023-03-01T02:33:53;16.50;;;13.53;;
10013;SDS011;45684;48.358;10.746;2023-03-01T02:36:22;17.23;;;12.90;;
10013;SDS011;45684;48.358;10.746;2023-03-01T02:38:53;16.57;;;12.60;;
10013;SDS011;45684;48.358;10.746;2023-03-01T02:41:26;17.80;;;13.53;;
10013;SDS011;45684;48.358;10.746;2023-03-01T02:43:59;18.27;;;13.67;;
10013;SDS011;45684;48.358;10.746;2023-03-01T02:46:27;19.33;;;13.70;;
10013;SDS011;45684;48.358;10.746;2023-03-01T02:48:56;17.67;;;13.93;;
10013;SDS011;45684;48.358;10.746;2023-03-01T02:51:36;17.97;;;13.83;;
10013;SDS011;45684;48.358;10.746;2023-03-01T02:54:15;16.40;;;12.97;;
10013;SDS011;45684;48.358;10.746;2023-03-01T02:56:50;19.17;;;14.00;;
10013;SDS011;45684;48.358;10.746;2023-03-01T02:59:22;17.37;;;13.67;;
10013;SDS011;45684;48.358;10.746;2023-03-01T03:01:52;17.40;;;13.87;;
10013;SDS011;45684;48.358;10.746;2023-03-01T03:04:20;18.20;;;13.93;;
10013;SDS011;45684;48.358;10.746;2023-03-01T03:06:49;19.30;;;14.03;;
10013;SDS011;45684;48.358;10.746;2023-03-01T03:09:18;18.30;;;13.80;;
10013;SDS011;45684;48.358;10.746;2023-03-01T03:11:46;16.50;;;14.00;;
10013;SDS011;45684;48.358;10.746;2023-03-01T03:14:14;19.57;;;14.50;;
10013;SDS011;45684;48.358;10.746;2023-03-01T03:16:48;19.67;;;13.87;;
10013;SDS011;45684;48.358;10.746;2023-03-01T03:19:17;17.20;;;13.47;;
10013;SDS011;45684;48.358;10.746;2023-03-01T03:21:45;19.43;;;14.17;;
10013;SDS011;45684;48.358;10.746;2023-03-01T03:24:13;18.83;;;13.43;;
10013;SDS011;45684;48.358;10.746;2023-03-01T03:26:40;18.43;;;14.17;;
10013;SDS011;45684;48.358;10.746;2023-03-01T03:29:08;15.77;;;12.90;;
10013;SDS011;45684;48.358;10.746;2023-03-01T03:31:36;18.30;;;13.70;;
10013;SDS011;45684;48.358;10.746;2023-03-01T03:34:05;19.17;;;14.03;;
10013;SDS011;45684;48.358;10.746;2023-03-01T03:36:33;16.80;;;12.77;;
10013;SDS011;45684;48.358;10.746;2023-03-01T03:39:00;20.40;;;14.50;;
10013;SDS011;45684;48.358;10.746;2023-03-01T03:41:28;17.93;;;13.47;;
10013;SDS011;45684;48.358;10.746;2023-03-01T03:43:56;15.23;;;12.47;;
10013;SDS011;45684;48.358;10.746;2023-03-01T03:46:24;16.60;;;13.67;;
10013;SDS011;45684;48.358;10.746;2023-03-01T03:48:52;17.97;;;13.33;;
10013;SDS011;45684;48.358;10.746;2023-03-01T03:51:21;17.80;;;13.30;;
10013;SDS011;45684;48.358;10.746;2023-03-01T03:53:49;17.47;;;13.30;;
10013;SDS011;45684;48.358;10.746;2023-03-01T03:56:17;17.00;;;12.83;;
10013;SDS011;45684;48.358;10.746;2023-03-01T03:58:44;17.77;;;13.17;;
10013;SDS011;45684;48.358;10.746;2023-03-01T04:01:12;17.87;;;13.10;;
10013;SDS011;45684;48.358;10.746;2023-03-01T04:03:40;17.43;;;13.77;;
10013;SDS011;45684;48.358;10.746;2023-03-01T04:06:12;15.53;;;12.43;;
10013;SDS011;45684;48.358;10.746;2023-03-01T04:08:42;17.77;;;14.10;;
10013;SDS011;45684;48.358;10.746;2023-03-01T04:11:10;17.40;;;13.47;;
10013;SDS011;45684;48.358;10.746;2023-03-01T04:13:55;19.37;;;14.10;;
10013;SDS011;45684;48.358;10.746;2023-03-01T04:16:24;16.90;;;13.20;;
10013;SDS011;45684;48.358;10.746;2023-03-01T04:18:52;18.37;;;14.67;;
10013;SDS011;45684;48.358;10.746;2023-03-01T04:21:20;17.80;;;12.90;;
10013;SDS011;45684;48.358;10.746;2023-03-01T04:23:50;16.53;;;13.57;;
10013;SDS011;45684;48.358;10.746;2023-03-01T04:26:18;17.67;;;13.43;;
10013;SDS011;45684;48.358;10.746;2023-03-01T04:28:47;18.70;;;14.03;;
10013;SDS011;45684;48.358;10.746;2023-03-01T04:31:17;18.67;;;13.70;;
10013;SDS011;45684;48.358;10.746;2023-03-01T04:33:48;19.23;;;13.47;;
10013;SDS011;45684;48.358;10.746;2023-03-01T04:36:19;15.73;;;12.73;;
10013;SDS011;45684;48.358;10.746;2023-03-01T04:38:50;18.23;;;14.03;;
10013;SDS011;45684;48.358;10.746;2023-03-01T04:41:18;16.87;;;13.27;;
10013;SDS011;45684;48.358;10.746;2023-03-01T04:43:48;18.03;;;13.03;;
10013;SDS011;45684;48.358;10.746;2023-03-01T04:46:17;16.30;;;12.87;;
10013;SDS011;45684;48.358;10.746;2023-03-01T04:48:46;17.87;;;12.93;;
10013;SDS011;45684;48.358;10.746;2023-03-01T04:51:14;17.93;;;13.43;;
10013;SDS011;45684;48.358;10.746;2023-03-01T04:53:42;19.00;;;14.23;;
10013;SDS011;45684;48.358;10.746;2023-03-01T04:56:14;16.87;;;13.07;;
10013;SDS011;45684;48.358;10.746;2023-03-01T04:58:44;16.67;;;13.13;;
10013;SDS011;45684;48.358;10.746;2023-03-01T05:01:13;18.20;;;14.43;;
10013;SDS011;45684;48.358;10.746;2023-03-01T05:03:42;18.73;;;14.10;;
10013;SDS011;45684;48.358;10.746;2023-03-01T05:06:11;18.20;;;13.77;;
10013;SDS011;45684;48.358;10.746;2023-03-01T05:08:39;17.00;;;13.47;;
10013;SDS011;45684;48.358;10.746;2023-03-01T05:11:08;16.63;;;13.10;;
10013;SDS011;45684;48.358;10.746;2023-03-01T05:13:38;18.13;;;14.33;;
10013;SDS011;45684;48.358;10.746;2023-03-01T05:16:07;17.50;;;14.10;;
10013;SDS011;45684;48.358;10.746;2023-03-01T05:18:38;16.90;;;13.47;;
10013;SDS011;45684;48.358;10.746;2023-03-01T05:21:08;18.27;;;13.67;;
10013;SDS011;45684;48.358;10.746;2023-03-01T05:23:37;16.43;;;13.00;;
10013;SDS011;45684;48.358;10.746;2023-03-01T05:26:05;18.47;;;13.37;;
10013;SDS011;45684;48.358;10.746;2023-03-01T05:28:52;16.43;;;12.83;;
10013;SDS011;45684;48.358;10.746;2023-03-01T05:31:24;17.53;;;14.13;;
10013;SDS011;45684;48.358;10.746;2023-03-01T05:33:52;18.73;;;13.90;;
10013;SDS011;45684;48.358;10.746;2023-03-01T05:36:20;20.27;;;13.43;;
10013;SDS011;45684;48.358;10.746;2023-03-01T05:38:48;17.40;;;13.97;;
10013;SDS011;45684;48.358;10.746;2023-03-01T05:41:16;19.77;;;13.97;;
10013;SDS011;45684;48.358;10.746;2023-03-01T05:43:44;20.20;;;15.37;;
10013;SDS011;45684;48.358;10.746;2023-03-01T05:46:13;18.27;;;13.37;;
10013;SDS011;45684;48.358;10.746;2023-03-01T05:48:41;20.57;;;14.90;;
10013;SDS011;45684;48.358;10.746;2023-03-01T05:51:09;21.03;;;14.63;;
10013;SDS011;45684;48.358;10.746;2023-03-01T05:53:38;19.10;;;14.33;;
10013;SDS011;45684;48.358;10.746;2023-03-01T05:56:06;21.93;;;14.80;;
10013;SDS011;45684;48.358;10.746;2023-03-01T05:58:34;18.57;;;14.13;;
10013;SDS011;45684;48.358;10.746;2023-03-01T06:01:01;19.17;;;14.93;;
10013;SDS011;45684;48.358;10.746;2023-03-01T06:03:32;19.33;;;14.73;;
10013;SDS011;45684;48.358;10.746;2023-03-01T06:06:00;18.37;;;14.73;;
10013;SDS011;45684;48.358;10.746;2023-03-01T06:08:28;20.13;;;14.73;;
10013;SDS011;45684;48.358;10.746;2023-03-01T06:10:56;21.57;;;14.80;;
10013;SDS011;45684;48.358;10.746;2023-03-01T06:13:23;19.07;;;14.60;;
10013;SDS011;45684;48.358;10.746;2023-03-01T06:15:52;19.83;;;14.77;;
10013;SDS011;45684;48.358;10.746;2023-03-01T06:18:19;20.20;;;15.53;;
10013;SDS011;45684;48.358;10.746;2023-03-01T06:20:53;22.17;;;15.03;;
10013;SDS011;45684;48.358;10.746;2023-03-01T06:23:21;19.70;;;14.70;;
10013;SDS011;45684;48.358;10.746;2023-03-01T06:25:49;19.40;;;14.97;;
10013;SDS011;45684;48.358;10.746;2023-03-01T06:28:17;18.47;;;13.93;;
10013;SDS011;45684;48.358;10.746;2023-03-01T06:30:45;20.77;;;14.97;;
10013;SDS011;45684;48.358;10.746;2023-03-01T06:33:13;21.33;;;15.23;;
10013;SDS011;45684;48.358;10.746;2023-03-01T06:35:40;19.63;;;14.73;;
10013;SDS011;45684;48.358;10.746;2023-03-01T06:38:10;20.43;;;15.40;;
10013;SDS011;45684;48.358;10.746;2023-03-01T06:40:38;20.60;;;14.33;;
10013;SDS011;45684;48.358;10.746;2023-03-01T06:43:06;20.23;;;15.30;;
10013;SDS011;45684;48.358;10.746;2023-03-01T06:45:34;17.97;;;14.00;;
10013;SDS011;45684;48.358;10.746;2023-03-01T06:48:02;20.53;;;14.67;;
10013;SDS011;45684;48.358;10.746;2023-03-01T06:50:31;17.97;;;14.40;;
10013;SDS011;45684;48.358;10.746;2023-03-01T06:52:59;18.87;;;14.00;;
10013;SDS011;45684;48.358;10.746;2023-03-01T06:55:29;20.33;;;15.47;;
10013;SDS011;45684;48.358;10.746;2023-03-01T06:57:58;20.73;;;15.20;;
10013;SDS011;45684;48.358;10.746;2023-03-01T07:00:27;20.37;;;15.03;;
10013;SDS011;45684;48.358;10.746;2023-03-01T07:02:58;20.73;;;15.03;;
10013;SDS011;45684;48.358;10.746;2023-03-01T07:05:28;20.40;;;14.47;;
10013;SDS011;45684;48.358;10.746;2023-03-01T07:07:56;20.57;;;15.20;;
10013;SDS011;45684;48.358;10.746;2023-03-01T07:10:24;19.47;;;14.80;;
10013;SDS011;45684;48.358;10.746;2023-03-01T07:12:55;20.53;;;15.43;;
10013;SDS011;45684;48.358;10.746;2023-03-01T07:15:23;20.27;;;14.53;;
10013;SDS011;45684;48.358;10.746;2023-03-01T07:17:51;18.93;;;15.10;;
10013;SDS011;45684;48.358;10.746;2023-03-01T07:20:19;19.33;;;14.83;;
10013;SDS011;45684;48.358;10.746;2023-03-01T07:22:50;19.17;;;14.97;;
10013;SDS011;45684;48.358;10.746;2023-03-01T07:25:18;18.73;;;14.07;;
10013;SDS011;45684;48.358;10.746;2023-03-01T07:27:48;18.00;;;13.93;;
10013;SDS011;45684;48.358;10.746;2023-03-01T07:30:19;18.27;;;14.40;;
10013;SDS011;45684;48.358;10.746;2023-03-01T07:32:47;18.87;;;14.50;;
10013;SDS011;45684;48.358;10.746;2023-03-01T07:35:15;20.60;;;14.97;;
10013;SDS011;45684;48.358;10.746;2023-03-01T07:37:43;19.80;;;14.40;;
10013;SDS011;45684;48.358;10.746;2023-03-01T07:40:11;20.03;;;14.77;;
10013;SDS011;45684;48.358;10.746;2023-03-01T07:42:39;19.30;;;14.50;;
10013;SDS011;45684;48.358;10.746;2023-03-01T07:45:07;20.17;;;15.10;;
10013;SDS011;45684;48.358;10.746;2023-03-01T07:47:37;18.73;;;14.03;;
10013;SDS011;45684;48.358;10.746;2023-03-01T07:50:05;17.20;;;13.47;;
10013;SDS011;45684;48.358;10.746;2023-03-01T07:52:33;17.90;;;13.37;;
10013;SDS011;45684;48.358;10.746;2023-03-01T07:55:01;18.10;;;13.97;;
10013;SDS011;45684;48.358;10.746;2023-03-01T07:57:29;18.77;;;14.40;;
10013;SDS011;45684;48.358;10.746;2023-03-01T07:59:57;19.57;;;13.87;;
10013;SDS011;45684;48.358;10.746;2023-03-01T08:02:25;17.93;;;13.93;;
10013;SDS011;45684;48.358;10.746;2023-03-01T08:04:54;20.67;;;14.43;;
10013;SDS011;45684;48.358;10.746;2023-03-01T08:07:22;20.93;;;14.60;;
10013;SDS011;45684;48.358;10.746;2023-03-01T08:09:50;20.07;;;13.90;;
10013;SDS011;45684;48.358;10.746;2023-03-01T08:12:18;19.37;;;13.97;;
10013;SDS011;45684;48.358;10.746;2023-03-01T08:14:46;18.03;;;14.17;;
10013;SDS011;45684;48.358;10.746;2023-03-01T08:17:14;18.27;;;14.03;;
10013;SDS011;45684;48.358;10.746;2023-03-01T08:19:42;18.80;;;13.37;;
10013;SDS011;45684;48.358;10.746;2023-03-01T08:22:11;18.20;;;13.87;;
10013;SDS011;45684;48.358;10.746;2023-03-01T08:24:39;19.63;;;14.07;;
10013;SDS011;45684;48.358;10.746;2023-03-01T08:27:07;16.33;;;12.80;;
10013;SDS011;45684;48.358;10.746;2023-03-01T08:29:35;16.97;;;13.13;;
10013;SDS011;45684;48.358;10.746;2023-03-01T08:32:06;18.20;;;14.20;;
10013;SDS011;45684;48.358;10.746;2023-03-01T08:34:38;19.07;;;13.93;;
10013;SDS011;45684;48.358;10.746;2023-03-01T08:37:07;18.70;;;13.63;;
10013;SDS011;45684;48.358;10.746;2023-03-01T08:39:37;17.27;;;13.90;;
10013;SDS011;45684;48.358;10.746;2023-03-01T08:42:05;18.17;;;13.50;;
10013;SDS011;45684;48.358;10.746;2023-03-01T08:44:33;17.73;;;13.83;;
10013;SDS011;45684;48.358;10.746;2023-03-01T08:47:01;17.87;;;14.17;;
10013;SDS011;45684;48.358;10.746;2023-03-01T08:49:31;17.90;;;14.27;;
10013;SDS011;45684;48.358;10.746;2023-03-01T08:51:59;18.23;;;13.23;;
10013;SDS011;45684;48.358;10.746;2023-03-01T08:54:28;18.00;;;13.80;;
10013;SDS011;45684;48.358;10.746;2023-03-01T08:56:58;18.03;;;13.90;;
10013;SDS011;45684;48.358;10.746;2023-03-01T08:59:28;17.90;;;14.53;;
10013;SDS011;45684;48.358;10.746;2023-03-01T09:01:56;16.70;;;13.67;;
10013;SDS011;45684;48.358;10.746;2023-03-01T09:04:23;18.00;;;13.93;;
10013;SDS011;45684;48.358;10.746;2023-03-01T09:06:51;17.20;;;14.07;;
10013;SDS011;45684;48.358;10.746;2023-03-01T09:09:19;17.27;;;13.30;;
10013;SDS011;45684;48.358;10.746;2023-03-01T09:11:47;18.07;;;14.17;;
10013;SDS011;45684;48.358;10.746;2023-03-01T09:14:17;17.50;;;13.50;;
10013;SDS011;45684;48.358;10.746;2023-03-01T09:16:45;17.63;;;13.70;;
10013;SDS011;45684;48.358;10.746;2023-03-01T09:19:13;18.83;;;14.57;;
10013;SDS011;45684;48.358;10.746;2023-03-01T09:21:41;17.33;;;13.67;;
10013;SDS011;45684;48.358;10.746;2023-03-01T09:24:19;15.53;;;13.70;;
10013;SDS011;45684;48.358;10.746;2023-03-01T09:26:48;17.70;;;13.03;;
10013;SDS011;45684;48.358;10.746;2023-03-01T09:29:18;19.70;;;13.93;;
10013;SDS011;45684;48.358;10.746;2023-03-01T09:31:46;18.13;;;13.60;;
10013;SDS011;45684;48.358;10.746;2023-03-01T09:34:14;17.90;;;13.73;;
10013;SDS011;45684;48.358;10.746;2023-03-01T09:36:42;17.90;;;14.27;;
10013;SDS011;45684;48.358;10.746;2023-03-01T09:39:10;17.03;;;14.13;;
10013;SDS011;45684;48.358;10.746;2023-03-01T09:41:42;18.43;;;13.90;;
10013;SDS011;45684;48.358;10.746;2023-03-01T09:44:16;17.47;;;13.87;;
10013;SDS011;45684;48.358;10.746;2023-03-01T09:46:55;17.50;;;13.43;;
10013;SDS011;45684;48.358;10.746;2023-03-01T09:49:23;17.60;;;13.10;;
10013;SDS011;45684;48.358;10.746;2023-03-01T09:51:58;17.27;;;13.50;;
10013;SDS011;45684;48.358;10.746;2023-03-01T09:54:28;17.83;;;13.23;;
10013;SDS011;45684;48.358;10.746;2023-03-01T09:57:02;17.60;;;13.73;;
10013;SDS011;45684;48.358;10.746;2023-03-01T09:59:44;18.27;;;13.87;;
10013;SDS011;45684;48.358;10.746;2023-03-01T10:02:22;15.73;;;13.10;;
10013;SDS011;45684;48.358;10.746;2023-03-01T10:04:56;18.53;;;13.87;;
10013;SDS011;45684;48.358;10.746;2023-03-01T10:07:33;17.87;;;14.03;;
10013;SDS011;45684;48.358;10.746;2023-03-01T10:10:15;17.80;;;13.90;;
10013;SDS011;45684;48.358;10.746;2023-03-01T10:12:50;17.50;;;13.67;;
10013;SDS011;45684;48.358;10.746;2023-03-01T10:15:22;18.20;;;14.10;;
10013;SDS011;45684;48.358;10.746;2023-03-01T10:18:00;18.57;;;14.07;;
10013;SDS011;45684;48.358;10.746;2023-03-01T10:20:37;18.97;;;14.37;;
10013;SDS011;45684;48.358;10.746;2023-03-01T10:23:12;18.20;;;14.83;;
10013;SDS011;45684;48.358;10.746;2023-03-01T10:25:43;18.70;;;14.10;;
10013;SDS011;45684;48.358;10.746;2023-03-01T10:28:23;16.83;;;13.80;;
10013;SDS011;45684;48.358;10.746;2023-03-01T10:30:58;18.70;;;15.07;;
10013;SDS011;45684;48.358;10.746;2023-03-01T10:33:27;18.37;;;14.03;;
10013;SDS011;45684;48.358;10.746;2023-03-01T10:35:58;18.73;;;14.83;;
10013;SDS011;45684;48.358;10.746;2023-03-01T10:38:26;18.97;;;14.60;;
10013;SDS011;45684;48.358;10.746;2023-03-01T10:40:58;18.70;;;14.80;;
10013;SDS011;45684;48.358;10.746;2023-03-01T10:43:32;17.67;;;13.93;;
10013;SDS011;45684;48.358;10.746;2023-03-01T10:46:23;16.63;;;13.70;;
10013;SDS011;45684;48.358;10.746;2023-03-01T10:49:05;15.80;;;14.00;;
10013;SDS011;45684;48.358;10.746;2023-03-01T10:51:39;19.07;;;14.10;;
10013;SDS011;45684;48.358;10.746;2023-03-01T10:54:15;20.07;;;15.03;;
10013;SDS011;45684;48.358;10.746;2023-03-01T10:56:49;16.07;;;14.00;;
10013;SDS011;45684;48.358;10.746;2023-03-01T10:59:24;17.90;;;14.23;;
10013;SDS011;45684;48.358;10.746;2023-03-01T11:02:02;17.53;;;14.60;;
10013;SDS011;45684;48.358;10.746;2023-03-01T11:04:57;19.67;;;14.83;;
10013;SDS011;45684;48.358;10.746;2023-03-01T11:07:27;18.00;;;14.90;;
10013;SDS011;45684;48.358;10.746;2023-03-01T11:09:55;17.33;;;14.43;;
10013;SDS011;45684;48.358;10.746;2023-03-01T11:12:22;18.53;;;14.73;;
10013;SDS011;45684;48.358;10.746;2023-03-01T11:14:53;18.40;;;14.67;;
10013;SDS011;45684;48.358;10.746;2023-03-01T11:17:24;18.43;;;14.73;;
10013;SDS011;45684;48.358;10.746;2023-03-01T11:20:02;15.97;;;13.73;;
10013;SDS011;45684;48.358;10.746;2023-03-01T11:22:33;17.93;;;14.53;;
10013;SDS011;45684;48.358;10.746;2023-03-01T11:25:02;16.20;;;13.93;;
10013;SDS011;45684;48.358;10.746;2023-03-01T11:27:36;15.97;;;13.90;;
10013;SDS011;45684;48.358;10.746;2023-03-01T11:30:12;16.87;;;13.83;;
10013;SDS011;45684;48.358;10.746;2023-03-01T11:32:47;15.70;;;13.10;;
10013;SDS011;45684;48.358;10.746;2023-03-01T11:35:21;21.00;;;14.20;;
10013;SDS011;45684;48.358;10.746;2023-03-01T11:37:55;15.47;;;13.77;;
10013;SDS011;45684;48.358;10.746;2023-03-01T11:40:32;18.57;;;14.00;;
10013;SDS011;45684;48.358;10.746;2023-03-01T11:43:06;16.90;;;14.03;;
10013;SDS011;45684;48.358;10.746;2023-03-01T11:45:45;16.53;;;13.93;;
10013;SDS011;45684;48.358;10.746;2023-03-01T11:48:31;16.03;;;13.50;;
10013;SDS011;45684;48.358;10.746;2023-03-01T11:51:17;16.90;;;14.77;;
10013;SDS011;45684;48.358;10.746;2023-03-01T11:53:58;17.20;;;14.27;;
10013;SDS011;45684;48.358;10.746;2023-03-01T11:56:34;20.07;;;14.80;;
10013;SDS011;45684;48.358;10.746;2023-03-01T12:02:15;18.07;;;14.57;;
10013;SDS011;45684;48.358;10.746;2023-03-01T12:05:22;16.07;;;13.73;;
10013;SDS011;45684;48.358;10.746;2023-03-01T12:08:01;14.90;;;13.37;;
10013;SDS011;45684;48.358;10.746;2023-03-01T12:10:40;16.00;;;13.57;;
10013;SDS011;45684;48.358;10.746;2023-03-01T12:13:21;15.80;;;13.77;;
10013;SDS011;45684;48.358;10.746;2023-03-01T12:16:13;16.27;;;13.60;;
10013;SDS011;45684;48.358;10.746;2023-03-01T12:22:12;16.03;;;13.00;;
10013;SDS011;45684;48.358;10.746;2023-03-01T12:28:01;15.77;;;12.97;;
10013;SDS011;45684;48.358;10.746;2023-03-01T12:30:49;17.60;;;14.53;;
10013;SDS011;45684;48.358;10.746;2023-03-01T12:33:34;15.83;;;13.33;;
10013;SDS011;45684;48.358;10.746;2023-03-01T12:39:34;15.97;;;12.90;;
10013;SDS011;45684;48.358;10.746;2023-03-01T12:42:12;15.47;;;13.23;;
10013;SDS011;45684;48.358;10.746;2023-03-01T12:44:56;15.03;;;13.40;;
10013;SDS011;45684;48.358;10.746;2023-03-01T12:47:38;15.33;;;13.63;;
10013;SDS011;45684;48.358;10.746;2023-03-01T12:50:19;18.07;;;14.77;;
10013;SDS011;45684;48.358;10.746;2023-03-01T12:52:49;17.37;;;13.70;;
10013;SDS011;45684;48.358;10.746;2023-03-01T12:55:24;15.57;;;13.93;;
10013;SDS011;45684;48.358;10.746;2023-03-01T12:57:59;14.50;;;13.00;;
10013;SDS011;45684;48.358;10.746;2023-03-01T13:00:36;14.90;;;13.23;;
10013;SDS011;45684;48.358;10.746;2023-03-01T13:03:25;15.57;;;13.33;;
10013;SDS011;45684;48.358;10.746;2023-03-01T13:06:02;15.40;;;13.13;;
10013;SDS011;45684;48.358;10.746;2023-03-01T13:08:36;15.13;;;13.00;;
10013;SDS011;45684;48.358;10.746;2023-03-01T13:11:14;15.33;;;12.93;;
10013;SDS011;45684;48.358;10.746;2023-03-01T13:13:44;14.30;;;12.80;;
10013;SDS011;45684;48.358;10.746;2023-03-01T13:16:22;15.23;;;13.63;;
10013;SDS011;45684;48.358;10.746;2023-03-01T13:19:09;16.40;;;13.63;;
10013;SDS011;45684;48.358;10.746;2023-03-01T13:21:42;14.03;;;12.43;;
10013;SDS011;45684;48.358;10.746;2023-03-01T13:24:24;14.60;;;12.67;;
10013;SDS011;45684;48.358;10.746;2023-03-01T13:27:10;14.20;;;12.50;;
10013;SDS011;45684;48.358;10.746;2023-03-01T13:29:51;14.57;;;12.93;;
10013;SDS011;45684;48.358;10.746;2023-03-01T13:32:23;14.90;;;12.97;;
10013;SDS011;45684;48.358;10.746;2023-03-01T13:44:20;15.27;;;12.93;;
10013;SDS011;45684;48.358;10.746;2023-03-01T13:46:53;14.87;;;13.27;;
10013;SDS011;45684;48.358;10.746;2023-03-01T13:49:25;16.77;;;13.67;;
10013;SDS011;45684;48.358;10.746;2023-03-01T13:54:59;14.87;;;12.77;;
10013;SDS011;45684;48.358;10.746;2023-03-01T13:57:31;14.83;;;12.97;;
10013;SDS011;45684;48.358;10.746;2023-03-01T14:00:03;14.70;;;12.50;;
10013;SDS011;45684;48.358;10.746;2023-03-01T14:02:32;14.20;;;12.23;;
10013;SDS011;45684;48.358;10.746;2023-03-01T14:05:02;14.63;;;12.13;;
10013;SDS011;45684;48.358;10.746;2023-03-01T14:07:30;13.67;;;11.90;;
10013;SDS011;45684;48.358;10.746;2023-03-01T14:09:58;14.53;;;12.83;;
10013;SDS011;45684;48.358;10.746;2023-03-01T14:12:32;15.27;;;12.13;;
10013;SDS011;45684;48.358;10.746;2023-03-01T14:15:15;13.90;;;11.87;;
10013;SDS011;45684;48.358;10.746;2023-03-01T14:17:52;14.03;;;11.47;;
10013;SDS011;45684;48.358;10.746;2023-03-01T14:20:27;13.73;;;11.80;;
10013;SDS011;45684;48.358;10.746;2023-03-01T14:22:57;13.20;;;11.90;;
10013;SDS011;45684;48.358;10.746;2023-03-01T14:25:29;13.37;;;11.97;;
10013;SDS011;45684;48.358;10.746;2023-03-01T14:28:00;13.20;;;11.50;;
10013;SDS011;45684;48.358;10.746;2023-03-01T14:30:34;14.03;;;12.63;;
10013;SDS011;45684;48.358;10.746;2023-03-01T14:33:05;14.00;;;12.03;;
10013;SDS011;45684;48.358;10.746;2023-03-01T14:35:51;13.87;;;11.97;;
10013;SDS011;45684;48.358;10.746;2023-03-01T14:38:20;13.80;;;12.03;;
10013;SDS011;45684;48.358;10.746;2023-03-01T14:40:49;13.97;;;12.53;;
10013;SDS011;45684;48.358;10.746;2023-03-01T14:43:22;12.93;;;11.53;;
10013;SDS011;45684;48.358;10.746;2023-03-01T14:45:53;13.67;;;11.70;;
10013;SDS011;45684;48.358;10.746;2023-03-01T14:48:21;13.70;;;12.20;;
10013;SDS011;45684;48.358;10.746;2023-03-01T14:50:49;15.47;;;12.67;;
10013;SDS011;45684;48.358;10.746;2023-03-01T14:53:19;14.20;;;12.43;;
10013;SDS011;45684;48.358;10.746;2023-03-01T14:55:50;16.77;;;13.00;;
10013;SDS011;45684;48.358;10.746;2023-03-01T14:58:20;15.10;;;12.00;;